Time,TemperatureF,DewpointF,PressureIn,WindDirection,WindDirectionDegrees,WindSpeedMPH,WindSpeedGustMPH,Humidity,HourlyPrecipIn,Conditions,Clouds,dailyrainin,SolarRadiationWatts/m^2,SoftwareType,DateUTC
2013-08-28 13:24:00,73.0,73.0,-100.00,East,87,5.0,7.0,100,0.00,,,0.00,113.000000,,2013-08-28 17:24:00,
2013-08-28 13:35:00,73.0,73.0,-100.00,East,87,5.0,7.0,100,0.00,,,0.00,113.000000,,2013-08-28 17:35:00,
2013-08-28 13:44:00,73.0,73.0,-100.00,East,87,5.0,7.0,100,0.00,,,0.00,113.000000,,2013-08-28 17:44:00,
2013-08-28 13:52:00,73.0,73.0,-100.00,East,87,5.0,7.0,100,0.00,,,0.00,113.000000,,2013-08-28 17:52:00,
2013-08-28 14:22:00,74.0,74.0,-100.00,ENE,68,5.0,8.0,100,0.00,,,0.00,214.000000,,2013-08-28 18:22:00,
2013-08-28 14:32:00,74.0,74.0,-100.00,ENE,68,5.0,8.0,100,0.00,,,0.00,214.000000,,2013-08-28 18:32:00,
2013-08-28 14:42:00,74.0,74.0,-100.00,ENE,68,5.0,8.0,100,0.00,,,0.00,214.000000,,2013-08-28 18:42:00,
2013-08-28 14:53:00,74.0,74.0,-100.00,ENE,68,5.0,8.0,100,0.00,,,0.00,214.000000,,2013-08-28 18:53:00,
2013-08-28 15:22:00,75.0,75.0,-100.00,ENE,66,9.0,11.0,99,0.00,,,0.00,354.000000,,2013-08-28 19:22:00,
2013-08-28 15:32:00,75.0,75.0,-100.00,ENE,66,9.0,11.0,99,0.00,,,0.00,354.000000,,2013-08-28 19:32:00,
2013-08-28 15:42:00,75.0,75.0,-100.00,ENE,66,9.0,11.0,99,0.00,,,0.00,354.000000,,2013-08-28 19:42:00,
2013-08-28 15:52:00,75.0,75.0,-100.00,ENE,66,9.0,11.0,99,0.00,,,0.00,354.000000,,2013-08-28 19:52:00,
2013-08-28 16:23:00,74.0,74.0,-100.00,ENE,64,7.0,11.0,100,0.00,,,0.00,201.000000,,2013-08-28 20:23:00,
2013-08-28 16:32:00,74.0,74.0,-100.00,ENE,64,7.0,11.0,100,0.00,,,0.00,201.000000,,2013-08-28 20:32:00,
2013-08-28 16:43:00,74.0,74.0,-100.00,ENE,64,7.0,11.0,100,0.00,,,0.00,201.000000,,2013-08-28 20:43:00,
2013-08-28 16:52:00,74.0,74.0,-100.00,ENE,64,7.0,11.0,100,0.00,,,0.00,201.000000,,2013-08-28 20:52:00,
2013-08-28 16:56:00,75.0,75.0,-100.00,East,92,5.0,9.0,100,0.00,,,0.00,137.000000,,2013-08-28 20:56:00,
2013-08-28 17:22:00,75.0,75.0,-100.00,East,92,5.0,9.0,100,0.00,,,0.00,137.000000,,2013-08-28 21:22:00,
2013-08-28 17:35:00,75.0,75.0,-100.00,East,92,5.0,9.0,100,0.00,,,0.00,137.000000,,2013-08-28 21:35:00,
2013-08-28 17:44:00,75.0,75.0,-100.00,East,92,5.0,9.0,100,0.00,,,0.00,137.000000,,2013-08-28 21:44:00,
2013-08-28 18:25:00,74.0,74.0,-100.00,ENE,78,6.0,10.0,100,0.00,,,0.00,90.000000,,2013-08-28 22:25:00,
2013-08-28 18:34:00,74.0,74.0,-100.00,ENE,78,6.0,10.0,100,0.00,,,0.00,90.000000,,2013-08-28 22:34:00,
2013-08-28 18:43:00,74.0,74.0,-100.00,ENE,78,6.0,10.0,100,0.00,,,0.00,90.000000,,2013-08-28 22:43:00,
2013-08-28 18:54:00,74.0,74.0,-100.00,ENE,78,6.0,10.0,100,0.00,,,0.00,90.000000,,2013-08-28 22:54:00,
2013-08-28 19:22:00,73.0,73.0,-100.00,ESE,107,5.0,10.0,100,0.00,,,0.00,89.000000,,2013-08-28 23:22:00,
2013-08-28 19:33:00,73.0,73.0,-100.00,ESE,107,5.0,10.0,100,0.00,,,0.00,89.000000,,2013-08-28 23:33:00,
2013-08-28 19:42:00,73.0,73.0,-100.00,ESE,107,5.0,10.0,100,0.00,,,0.00,89.000000,,2013-08-28 23:42:00,
2013-08-28 19:53:00,73.0,73.0,-100.00,ESE,107,5.0,10.0,100,0.00,,,0.00,89.000000,,2013-08-28 23:53:00,
2013-08-28 21:22:00,69.0,69.0,-100.00,SE,145,1.0,4.0,100,0.00,,,0.00,1.000000,,2013-08-29 01:22:00,
2013-08-28 21:32:00,69.0,69.0,-100.00,SE,145,1.0,4.0,100,0.00,,,0.00,1.000000,,2013-08-29 01:32:00,
2013-08-28 21:42:00,69.0,69.0,-100.00,SE,145,1.0,4.0,100,0.00,,,0.00,1.000000,,2013-08-29 01:42:00,
2013-08-28 21:52:00,69.0,69.0,-100.00,SE,145,1.0,4.0,100,0.00,,,0.00,1.000000,,2013-08-29 01:52:00,
2013-08-28 22:22:00,68.0,68.0,-100.00,ESE,115,1.0,5.0,100,0.00,,,0.00,1.000000,,2013-08-29 02:22:00,
2013-08-28 22:32:00,68.0,68.0,-100.00,ESE,115,1.0,5.0,100,0.00,,,0.00,1.000000,,2013-08-29 02:32:00,
2013-08-28 22:43:00,68.0,68.0,-100.00,ESE,115,1.0,5.0,100,0.00,,,0.00,1.000000,,2013-08-29 02:43:00,
2013-08-28 22:52:00,68.0,68.0,-100.00,ESE,115,1.0,5.0,100,0.00,,,0.00,1.000000,,2013-08-29 02:52:00,
2013-08-28 22:56:00,68.0,68.0,-100.00,ENE,69,3.0,6.0,100,0.00,,,0.00,1.000000,,2013-08-29 02:56:00,
2013-08-28 23:23:00,68.0,68.0,-100.00,ENE,69,3.0,6.0,100,0.00,,,0.00,1.000000,,2013-08-29 03:23:00,
2013-08-28 23:37:00,68.0,68.0,-100.00,ENE,69,3.0,6.0,100,0.00,,,0.00,1.000000,,2013-08-29 03:37:00,
2013-08-28 23:45:00,68.0,68.0,-100.00,ENE,69,3.0,6.0,100,0.00,,,0.00,1.000000,,2013-08-29 03:45:00,